sensor_id;sensor_type;location;lat;lon;timestamp;pressure;altitude;pressure_sealevel;temperature;humidity
59419;BME280;45224;50.904;6.038;2022-12-20T00:00:06;99747.28;;;11.68;72.22
59419;BME280;45224;50.904;6.038;2022-12-20T00:01:37;99733.50;;;11.60;72.26
59419;BME280;45224;50.904;6.038;2022-12-20T00:03:08;99737.81;;;11.58;71.97
59419;BME280;45224;50.904;6.038;2022-12-20T00:04:38;99736.94;;;11.65;72.09
59419;BME280;45224;50.904;6.038;2022-12-20T00:06:10;99735.19;;;11.68;71.95
59419;BME280;45224;50.904;6.038;2022-12-20T00:07:40;99739.50;;;11.71;72.11
59419;BME280;45224;50.904;6.038;2022-12-20T00:09:11;99721.38;;;11.71;72.01
59419;BME280;45224;50.904;6.038;2022-12-20T00:10:43;99722.28;;;11.56;72.08
59419;BME280;45224;50.904;6.038;2022-12-20T00:12:13;99726.59;;;11.59;71.87
59419;BME280;45224;50.904;6.038;2022-12-20T00:13:45;99731.75;;;11.62;71.93
59419;BME280;45224;50.904;6.038;2022-12-20T00:15:16;99727.41;;;11.65;71.68
59419;BME280;45224;50.904;6.038;2022-12-20T00:16:46;99735.19;;;11.62;71.71
59419;BME280;45224;50.904;6.038;2022-12-20T00:18:17;99728.31;;;11.66;71.93
59419;BME280;45224;50.904;6.038;2022-12-20T00:19:48;99742.13;;;11.62;72.03
59419;BME280;45224;50.904;6.038;2022-12-20T00:21:19;99741.28;;;11.60;71.82
59419;BME280;45224;50.904;6.038;2022-12-20T00:22:49;99748.97;;;11.69;71.66
59419;BME280;45224;50.904;6.038;2022-12-20T00:24:20;99749.88;;;11.62;71.80
59419;BME280;45224;50.904;6.038;2022-12-20T00:25:50;99748.16;;;11.64;71.59
59419;BME280;45224;50.904;6.038;2022-12-20T00:27:20;99736.03;;;11.67;71.75
59419;BME280;45224;50.904;6.038;2022-12-20T00:28:52;99752.44;;;11.74;71.67
59419;BME280;45224;50.904;6.038;2022-12-20T00:30:22;99746.38;;;11.67;71.50
59419;BME280;45224;50.904;6.038;2022-12-20T00:31:53;99741.19;;;11.75;71.45
59419;BME280;45224;50.904;6.038;2022-12-20T00:33:23;99738.59;;;11.70;71.47
59419;BME280;45224;50.904;6.038;2022-12-20T00:34:54;99738.59;;;11.72;71.49
59419;BME280;45224;50.904;6.038;2022-12-20T00:36:26;99726.53;;;11.74;71.16
59419;BME280;45224;50.904;6.038;2022-12-20T00:37:57;99719.63;;;11.70;71.18
59419;BME280;45224;50.904;6.038;2022-12-20T00:39:27;99723.06;;;11.69;71.33
59419;BME280;45224;50.904;6.038;2022-12-20T00:41:10;99727.41;;;11.70;71.26
59419;BME280;45224;50.904;6.038;2022-12-20T00:42:40;99718.81;;;11.65;71.40
59419;BME280;45224;50.904;6.038;2022-12-20T00:44:11;99710.19;;;11.64;71.45
59419;BME280;45224;50.904;6.038;2022-12-20T00:45:41;99715.38;;;11.64;71.28
59419;BME280;45224;50.904;6.038;2022-12-20T00:47:12;99714.47;;;11.65;71.32
59419;BME280;45224;50.904;6.038;2022-12-20T00:48:42;99717.03;;;11.70;71.59
59419;BME280;45224;50.904;6.038;2022-12-20T00:50:13;99724.81;;;11.70;71.54
59419;BME280;45224;50.904;6.038;2022-12-20T00:51:44;99716.16;;;11.74;71.39
59419;BME280;45224;50.904;6.038;2022-12-20T00:53:14;99719.59;;;11.76;71.61
59419;BME280;45224;50.904;6.038;2022-12-20T00:54:44;99713.56;;;11.74;71.38
59419;BME280;45224;50.904;6.038;2022-12-20T00:56:15;99706.69;;;11.68;71.40
59419;BME280;45224;50.904;6.038;2022-12-20T00:57:46;99707.53;;;11.69;71.61
59419;BME280;45224;50.904;6.038;2022-12-20T00:59:16;99711.03;;;11.65;71.82
59419;BME280;45224;50.904;6.038;2022-12-20T01:00:47;99697.22;;;11.66;71.49
59419;BME280;45224;50.904;6.038;2022-12-20T01:02:18;99698.91;;;11.73;71.78
59419;BME280;45224;50.904;6.038;2022-12-20T01:03:49;99692.94;;;11.60;71.77
59419;BME280;45224;50.904;6.038;2022-12-20T01:05:20;99690.25;;;11.77;71.48
59419;BME280;45224;50.904;6.038;2022-12-20T01:06:50;99693.72;;;11.73;71.49
59419;BME280;45224;50.904;6.038;2022-12-20T01:08:23;99698.91;;;11.70;71.73
59419;BME280;45224;50.904;6.038;2022-12-20T01:09:53;99701.53;;;11.65;72.18
59419;BME280;45224;50.904;6.038;2022-12-20T01:11:29;99704.91;;;11.77;71.93
59419;BME280;45224;50.904;6.038;2022-12-20T01:13:01;99698.06;;;11.66;72.51
59419;BME280;45224;50.904;6.038;2022-12-20T01:14:32;99707.63;;;11.57;73.30
59419;BME280;45224;50.904;6.038;2022-12-20T01:16:08;99696.47;;;11.45;74.42
59419;BME280;45224;50.904;6.038;2022-12-20T01:17:39;99699.06;;;11.45;74.91
59419;BME280;45224;50.904;6.038;2022-12-20T01:19:12;99705.91;;;11.52;74.67
59419;BME280;45224;50.904;6.038;2022-12-20T01:20:43;99704.22;;;11.51;75.00
59419;BME280;45224;50.904;6.038;2022-12-20T01:22:13;99719.78;;;11.42;75.44
59419;BME280;45224;50.904;6.038;2022-12-20T01:23:44;99712.84;;;11.44;75.51
59419;BME280;45224;50.904;6.038;2022-12-20T01:25:15;99712.94;;;11.32;75.53
59419;BME280;45224;50.904;6.038;2022-12-20T01:26:46;99712.94;;;11.32;75.67
59419;BME280;45224;50.904;6.038;2022-12-20T01:28:17;99721.56;;;11.31;76.02
59419;BME280;45224;50.904;6.038;2022-12-20T01:29:48;99723.31;;;11.23;76.24
59419;BME280;45224;50.904;6.038;2022-12-20T01:31:18;99716.38;;;11.28;76.06
59419;BME280;45224;50.904;6.038;2022-12-20T01:32:49;99718.09;;;11.32;76.14
59419;BME280;45224;50.904;6.038;2022-12-20T01:34:20;99720.72;;;11.20;76.38
59419;BME280;45224;50.904;6.038;2022-12-20T01:35:59;99722.50;;;11.11;77.03
59419;BME280;45224;50.904;6.038;2022-12-20T01:37:30;99712.16;;;11.05;77.19
59419;BME280;45224;50.904;6.038;2022-12-20T01:39:04;99713.06;;;10.98;77.57
59419;BME280;45224;50.904;6.038;2022-12-20T01:40:38;99713.88;;;11.05;77.47
59419;BME280;45224;50.904;6.038;2022-12-20T01:42:12;99703.53;;;11.09;77.07
59419;BME280;45224;50.904;6.038;2022-12-20T01:43:52;99697.50;;;11.03;77.33
59419;BME280;45224;50.904;6.038;2022-12-20T01:45:29;99683.69;;;11.05;77.12
59419;BME280;45224;50.904;6.038;2022-12-20T01:46:59;99683.72;;;10.98;77.51
59419;BME280;45224;50.904;6.038;2022-12-20T01:48:30;99686.31;;;10.96;77.67
59419;BME280;45224;50.904;6.038;2022-12-20T01:50:02;99686.31;;;10.94;77.83
59419;BME280;45224;50.904;6.038;2022-12-20T01:51:39;99691.47;;;11.02;77.44
59419;BME280;45224;50.904;6.038;2022-12-20T01:53:11;99686.31;;;10.94;77.75
59419;BME280;45224;50.904;6.038;2022-12-20T01:55:03;99683.78;;;10.77;78.53
59419;BME280;45224;50.904;6.038;2022-12-20T01:56:35;99685.47;;;10.92;78.11
59419;BME280;45224;50.904;6.038;2022-12-20T01:58:11;99683.78;;;10.87;78.29
59419;BME280;45224;50.904;6.038;2022-12-20T01:59:43;99690.66;;;10.85;78.54
59419;BME280;45224;50.904;6.038;2022-12-20T02:01:15;99688.94;;;10.87;78.35
59419;BME280;45224;50.904;6.038;2022-12-20T02:02:47;99679.47;;;10.84;78.48
59419;BME280;45224;50.904;6.038;2022-12-20T02:04:18;99670.84;;;10.79;78.63
59419;BME280;45224;50.904;6.038;2022-12-20T02:05:49;99682.91;;;10.82;78.41
59419;BME280;45224;50.904;6.038;2022-12-20T02:07:23;99682.94;;;10.74;78.98
59419;BME280;45224;50.904;6.038;2022-12-20T02:08:58;99676.88;;;10.83;78.75
59419;BME280;45224;50.904;6.038;2022-12-20T02:10:56;99669.09;;;10.87;78.15
59419;BME280;45224;50.904;6.038;2022-12-20T02:12:43;99674.28;;;10.86;78.27
59419;BME280;45224;50.904;6.038;2022-12-20T02:14:38;99668.28;;;10.74;78.86
59419;BME280;45224;50.904;6.038;2022-12-20T02:16:20;99670.00;;;10.75;78.78
59419;BME280;45224;50.904;6.038;2022-12-20T02:21:37;99661.38;;;10.70;80.04
59419;BME280;45224;50.904;6.038;2022-12-20T02:25:31;99682.09;;;10.64;81.00
59419;BME280;45224;50.904;6.038;2022-12-20T02:31:49;99675.19;;;10.63;81.30
59419;BME280;45224;50.904;6.038;2022-12-20T02:33:24;99680.38;;;10.57;82.02
59419;BME280;45224;50.904;6.038;2022-12-20T02:34:56;99676.94;;;10.59;82.17
59419;BME280;45224;50.904;6.038;2022-12-20T02:36:27;99674.34;;;10.56;82.99
59419;BME280;45224;50.904;6.038;2022-12-20T02:38:00;99660.53;;;10.56;82.75
59419;BME280;45224;50.904;6.038;2022-12-20T02:39:32;99657.94;;;10.62;82.98
59419;BME280;45224;50.904;6.038;2022-12-20T02:41:32;99659.69;;;10.66;82.47
59419;BME280;45224;50.904;6.038;2022-12-20T02:43:06;99663.97;;;10.69;82.69
59419;BME280;45224;50.904;6.038;2022-12-20T02:45:05;99657.09;;;10.58;82.76
59419;BME280;45224;50.904;6.038;2022-12-20T02:46:47;99670.03;;;10.57;83.04
59419;BME280;45224;50.904;6.038;2022-12-20T02:48:20;99664.00;;;10.56;83.54
59419;BME280;45224;50.904;6.038;2022-12-20T02:49:52;99664.84;;;10.63;82.74
59419;BME280;45224;50.904;6.038;2022-12-20T02:51:25;99649.34;;;10.55;83.05
59419;BME280;45224;50.904;6.038;2022-12-20T02:52:59;99658.84;;;10.56;83.09
59419;BME280;45224;50.904;6.038;2022-12-20T02:54:29;99661.44;;;10.55;83.01
59419;BME280;45224;50.904;6.038;2022-12-20T02:57:56;99658.00;;;10.40;83.58
59419;BME280;45224;50.904;6.038;2022-12-20T03:01:07;99656.28;;;10.49;83.15
59419;BME280;45224;50.904;6.038;2022-12-20T03:02:38;99661.44;;;10.46;83.55
59419;BME280;45224;50.904;6.038;2022-12-20T03:04:31;99658.84;;;10.49;83.38
59419;BME280;45224;50.904;6.038;2022-12-20T03:06:04;99658.00;;;10.50;83.36
59419;BME280;45224;50.904;6.038;2022-12-20T03:07:35;99658.00;;;10.40;84.18
59419;BME280;45224;50.904;6.038;2022-12-20T03:09:06;99655.41;;;10.50;84.12
59419;BME280;45224;50.904;6.038;2022-12-20T03:10:39;99654.53;;;10.49;83.93
59419;BME280;45224;50.904;6.038;2022-12-20T03:12:10;99652.81;;;10.53;84.22
59419;BME280;45224;50.904;6.038;2022-12-20T03:13:41;99651.09;;;10.46;84.33
59419;BME280;45224;50.904;6.038;2022-12-20T03:15:13;99666.59;;;10.53;83.97
59419;BME280;45224;50.904;6.038;2022-12-20T03:16:43;99666.59;;;10.55;83.95
59419;BME280;45224;50.904;6.038;2022-12-20T03:18:14;99651.09;;;10.55;84.68
59419;BME280;45224;50.904;6.038;2022-12-20T03:19:44;99658.00;;;10.53;85.62
59419;BME280;45224;50.904;6.038;2022-12-20T03:21:15;99662.28;;;10.49;85.58
59419;BME280;45224;50.904;6.038;2022-12-20T03:22:45;99665.75;;;10.44;86.28
59419;BME280;45224;50.904;6.038;2022-12-20T03:24:16;99651.09;;;10.43;86.08
59419;BME280;45224;50.904;6.038;2022-12-20T03:25:47;99649.41;;;10.38;86.05
59419;BME280;45224;50.904;6.038;2022-12-20T03:27:25;99646.81;;;10.40;86.12
59419;BME280;45224;50.904;6.038;2022-12-20T03:29:00;99653.69;;;10.35;86.65
59419;BME280;45224;50.904;6.038;2022-12-20T03:30:32;99649.38;;;10.52;85.47
59419;BME280;45224;50.904;6.038;2022-12-20T03:32:02;99646.78;;;10.46;85.48
59419;BME280;45224;50.904;6.038;2022-12-20T03:33:33;99649.38;;;10.48;85.57
59419;BME280;45224;50.904;6.038;2022-12-20T03:35:08;99651.09;;;10.49;86.44
59419;BME280;45224;50.904;6.038;2022-12-20T03:36:42;99664.88;;;10.48;86.29
59419;BME280;45224;50.904;6.038;2022-12-20T03:38:13;99650.25;;;10.40;86.35
59419;BME280;45224;50.904;6.038;2022-12-20T03:39:43;99654.53;;;10.48;86.17
59419;BME280;45224;50.904;6.038;2022-12-20T03:41:14;99657.13;;;10.51;85.72
59419;BME280;45224;50.904;6.038;2022-12-20T03:42:45;99655.41;;;10.42;86.21
59419;BME280;45224;50.904;6.038;2022-12-20T03:44:15;99657.13;;;10.48;85.93
59419;BME280;45224;50.904;6.038;2022-12-20T03:45:46;99657.13;;;10.46;85.98
59419;BME280;45224;50.904;6.038;2022-12-20T03:47:17;99666.59;;;10.52;85.56
59419;BME280;45224;50.904;6.038;2022-12-20T03:48:50;99665.75;;;10.40;86.31
59419;BME280;45224;50.904;6.038;2022-12-20T03:50:20;99663.16;;;10.48;85.99
59419;BME280;45224;50.904;6.038;2022-12-20T03:51:51;99653.69;;;10.43;86.03
59419;BME280;45224;50.904;6.038;2022-12-20T03:53:22;99663.16;;;10.50;86.05
59419;BME280;45224;50.904;6.038;2022-12-20T03:54:52;99647.66;;;10.53;86.11
59419;BME280;45224;50.904;6.038;2022-12-20T03:56:25;99647.66;;;10.45;86.96
59419;BME280;45224;50.904;6.038;2022-12-20T03:57:55;99648.50;;;10.49;87.17
59419;BME280;45224;50.904;6.038;2022-12-20T03:59:36;99645.09;;;10.40;87.54
59419;BME280;45224;50.904;6.038;2022-12-20T04:01:18;99644.19;;;10.41;87.81
59419;BME280;45224;50.904;6.038;2022-12-20T04:02:49;99633.00;;;10.47;87.17
59419;BME280;45224;50.904;6.038;2022-12-20T04:04:20;99634.75;;;10.45;87.36
59419;BME280;45224;50.904;6.038;2022-12-20T04:05:51;99637.34;;;10.37;87.53
59419;BME280;45224;50.904;6.038;2022-12-20T04:07:21;99629.56;;;10.40;87.20
59419;BME280;45224;50.904;6.038;2022-12-20T04:08:52;99630.44;;;10.39;87.21
59419;BME280;45224;50.904;6.038;2022-12-20T04:10:31;99627.00;;;10.44;86.75
59419;BME280;45224;50.904;6.038;2022-12-20T04:12:02;99638.19;;;10.47;86.63
59419;BME280;45224;50.904;6.038;2022-12-20T04:13:34;99630.44;;;10.46;86.76
59419;BME280;45224;50.904;6.038;2022-12-20T04:15:06;99632.16;;;10.48;86.44
59419;BME280;45224;50.904;6.038;2022-12-20T04:16:38;99620.09;;;10.44;85.98
59419;BME280;45224;50.904;6.038;2022-12-20T04:18:09;99612.31;;;10.56;85.25
59419;BME280;45224;50.904;6.038;2022-12-20T04:19:41;99608.91;;;10.47;84.98
59419;BME280;45224;50.904;6.038;2022-12-20T04:21:12;99614.91;;;10.55;84.69
59419;BME280;45224;50.904;6.038;2022-12-20T04:22:48;99614.91;;;10.49;84.79
59419;BME280;45224;50.904;6.038;2022-12-20T04:24:19;99599.41;;;10.49;84.96
59419;BME280;45224;50.904;6.038;2022-12-20T04:26:06;99601.16;;;10.40;84.94
59419;BME280;45224;50.904;6.038;2022-12-20T04:27:38;99602.84;;;10.48;84.75
59419;BME280;45224;50.904;6.038;2022-12-20T04:29:11;99603.75;;;10.37;84.30
59419;BME280;45224;50.904;6.038;2022-12-20T04:30:43;99610.59;;;10.41;84.20
59419;BME280;45224;50.904;6.038;2022-12-20T04:32:14;99603.72;;;10.42;84.06
59419;BME280;45224;50.904;6.038;2022-12-20T04:33:45;99610.63;;;10.29;83.95
59419;BME280;45224;50.904;6.038;2022-12-20T04:35:16;99612.34;;;10.43;83.83
59419;BME280;45224;50.904;6.038;2022-12-20T04:36:47;99602.00;;;10.43;83.26
59419;BME280;45224;50.904;6.038;2022-12-20T04:38:25;99599.41;;;10.43;83.07
59419;BME280;45224;50.904;6.038;2022-12-20T04:39:56;99602.84;;;10.41;83.15
59419;BME280;45224;50.904;6.038;2022-12-20T04:41:44;99604.59;;;10.44;83.20
59419;BME280;45224;50.904;6.038;2022-12-20T04:43:17;99597.69;;;10.45;83.42
59419;BME280;45224;50.904;6.038;2022-12-20T04:44:49;99591.66;;;10.41;82.95
59419;BME280;45224;50.904;6.038;2022-12-20T04:46:25;99592.50;;;10.51;82.86
59419;BME280;45224;50.904;6.038;2022-12-20T04:47:58;99592.50;;;10.48;82.48
59419;BME280;45224;50.904;6.038;2022-12-20T04:49:38;99592.50;;;10.41;82.63
59419;BME280;45224;50.904;6.038;2022-12-20T04:51:08;99591.66;;;10.49;82.60
59419;BME280;45224;50.904;6.038;2022-12-20T04:52:39;99594.22;;;10.50;82.33
59419;BME280;45224;50.904;6.038;2022-12-20T04:54:29;99591.66;;;10.46;82.55
59419;BME280;45224;50.904;6.038;2022-12-20T04:56:03;99593.38;;;10.48;82.54
59419;BME280;45224;50.904;6.038;2022-12-20T04:57:34;99583.06;;;10.37;82.30
59419;BME280;45224;50.904;6.038;2022-12-20T04:59:07;99592.50;;;10.41;82.34
59419;BME280;45224;50.904;6.038;2022-12-20T05:00:38;99584.75;;;10.48;82.39
59419;BME280;45224;50.904;6.038;2022-12-20T05:02:21;99583.91;;;10.39;82.17
59419;BME280;45224;50.904;6.038;2022-12-20T05:03:57;99573.56;;;10.43;82.33
59419;BME280;45224;50.904;6.038;2022-12-20T05:05:32;99583.91;;;10.44;82.13
59419;BME280;45224;50.904;6.038;2022-12-20T05:07:02;99575.31;;;10.42;82.11
59419;BME280;45224;50.904;6.038;2022-12-20T05:08:33;99589.91;;;10.48;82.30
59419;BME280;45224;50.904;6.038;2022-12-20T05:10:05;99577.00;;;10.48;81.70
59419;BME280;45224;50.904;6.038;2022-12-20T05:11:35;99585.63;;;10.53;81.90
59419;BME280;45224;50.904;6.038;2022-12-20T05:13:10;99578.75;;;10.43;81.99
59419;BME280;45224;50.904;6.038;2022-12-20T05:14:45;99581.31;;;10.49;81.95
59419;BME280;45224;50.904;6.038;2022-12-20T05:16:17;99576.16;;;10.47;81.81
59419;BME280;45224;50.904;6.038;2022-12-20T05:17:47;99585.63;;;10.53;81.50
59419;BME280;45224;50.904;6.038;2022-12-20T05:19:18;99580.47;;;10.47;81.67
59419;BME280;45224;50.904;6.038;2022-12-20T05:20:49;99577.00;;;10.41;81.51
59419;BME280;45224;50.904;6.038;2022-12-20T05:22:40;99570.97;;;10.46;81.50
59419;BME280;45224;50.904;6.038;2022-12-20T05:24:37;99567.53;;;10.50;81.52
59419;BME280;45224;50.904;6.038;2022-12-20T05:26:36;99572.69;;;10.50;81.32
59419;BME280;45224;50.904;6.038;2022-12-20T05:28:07;99572.72;;;10.48;81.08
59419;BME280;45224;50.904;6.038;2022-12-20T05:29:40;99577.00;;;10.51;81.07
59419;BME280;45224;50.904;6.038;2022-12-20T05:31:11;99564.06;;;10.55;81.16
59419;BME280;45224;50.904;6.038;2022-12-20T05:32:41;99577.88;;;10.45;80.83
59419;BME280;45224;50.904;6.038;2022-12-20T05:34:12;99582.16;;;10.54;81.02
59419;BME280;45224;50.904;6.038;2022-12-20T05:35:45;99570.13;;;10.47;81.27
59419;BME280;45224;50.904;6.038;2022-12-20T05:37:18;99576.13;;;10.52;80.71
59419;BME280;45224;50.904;6.038;2022-12-20T05:38:49;99564.06;;;10.55;80.71
59419;BME280;45224;50.904;6.038;2022-12-20T05:40:22;99564.97;;;10.47;80.90
59419;BME280;45224;50.904;6.038;2022-12-20T05:41:53;99562.38;;;10.48;80.69
59419;BME280;45224;50.904;6.038;2022-12-20T05:43:27;99563.22;;;10.46;80.56
59419;BME280;45224;50.904;6.038;2022-12-20T05:44:57;99560.63;;;10.55;80.49
59419;BME280;45224;50.904;6.038;2022-12-20T05:46:28;99551.13;;;10.51;80.24
59419;BME280;45224;50.904;6.038;2022-12-20T05:48:05;99558.00;;;10.61;80.15
59419;BME280;45224;50.904;6.038;2022-12-20T05:49:37;99554.50;;;10.77;79.29
59419;BME280;45224;50.904;6.038;2022-12-20T05:51:11;99543.34;;;10.68;79.17
59419;BME280;45224;50.904;6.038;2022-12-20T05:53:00;99555.38;;;10.66;79.47
59419;BME280;45224;50.904;6.038;2022-12-20T05:54:31;99554.53;;;10.62;79.50
59419;BME280;45224;50.904;6.038;2022-12-20T05:56:22;99561.44;;;10.65;79.79
59419;BME280;45224;50.904;6.038;2022-12-20T05:57:52;99551.13;;;10.60;79.62
59419;BME280;45224;50.904;6.038;2022-12-20T05:59:31;99550.22;;;10.66;79.31
59419;BME280;45224;50.904;6.038;2022-12-20T06:01:03;99547.69;;;10.61;79.55
59419;BME280;45224;50.904;6.038;2022-12-20T06:02:38;99548.53;;;10.60;79.21
59419;BME280;45224;50.904;6.038;2022-12-20T06:04:09;99545.94;;;10.63;79.26
59419;BME280;45224;50.904;6.038;2022-12-20T06:05:40;99545.03;;;10.67;78.94
59419;BME280;45224;50.904;6.038;2022-12-20T06:07:15;99527.84;;;10.60;78.83
59419;BME280;45224;50.904;6.038;2022-12-20T06:08:48;99541.59;;;10.68;78.90
59419;BME280;45224;50.904;6.038;2022-12-20T06:10:24;99545.03;;;10.67;78.55
59419;BME280;45224;50.904;6.038;2022-12-20T06:11:59;99551.94;;;10.70;78.39
59419;BME280;45224;50.904;6.038;2022-12-20T06:13:31;99551.06;;;10.75;78.47
59419;BME280;45224;50.904;6.038;2022-12-20T06:15:02;99545.00;;;10.78;78.65
59419;BME280;45224;50.904;6.038;2022-12-20T06:16:33;99538.13;;;10.74;78.36
59419;BME280;45224;50.904;6.038;2022-12-20T06:18:04;99537.28;;;10.69;78.12
59419;BME280;45224;50.904;6.038;2022-12-20T06:19:35;99532.09;;;10.70;78.40
59419;BME280;45224;50.904;6.038;2022-12-20T06:21:06;99532.09;;;10.70;78.52
59419;BME280;45224;50.904;6.038;2022-12-20T06:22:37;99520.03;;;10.75;78.17
59419;BME280;45224;50.904;6.038;2022-12-20T06:24:08;99523.47;;;10.74;78.18
59419;BME280;45224;50.904;6.038;2022-12-20T06:25:41;99526.06;;;10.76;78.09
59419;BME280;45224;50.904;6.038;2022-12-20T06:27:13;99525.22;;;10.69;77.99
59419;BME280;45224;50.904;6.038;2022-12-20T06:28:43;99507.13;;;10.69;78.03
59419;BME280;45224;50.904;6.038;2022-12-20T06:30:15;99504.47;;;10.80;77.26
59419;BME280;45224;50.904;6.038;2022-12-20T06:32:18;99507.94;;;10.77;77.79
59419;BME280;45224;50.904;6.038;2022-12-20T06:33:49;99504.44;;;10.86;77.35
59419;BME280;45224;50.904;6.038;2022-12-20T06:35:21;99505.31;;;10.85;77.45
59419;BME280;45224;50.904;6.038;2022-12-20T06:36:52;99498.41;;;10.86;77.56
59419;BME280;45224;50.904;6.038;2022-12-20T06:38:26;99505.31;;;10.85;77.71
59419;BME280;45224;50.904;6.038;2022-12-20T06:39:57;99519.97;;;10.82;77.69
59419;BME280;45224;50.904;6.038;2022-12-20T06:41:28;99515.63;;;10.88;77.67
59419;BME280;45224;50.904;6.038;2022-12-20T06:42:59;99523.44;;;10.84;77.64
59419;BME280;45224;50.904;6.038;2022-12-20T06:44:30;99519.97;;;10.85;77.71
59419;BME280;45224;50.904;6.038;2022-12-20T06:46:00;99521.72;;;10.83;77.77
59419;BME280;45224;50.904;6.038;2022-12-20T06:47:31;99524.31;;;10.81;77.20
59419;BME280;45224;50.904;6.038;2022-12-20T06:49:02;99513.09;;;10.84;77.69
59419;BME280;45224;50.904;6.038;2022-12-20T06:50:32;99514.81;;;10.78;77.58
59419;BME280;45224;50.904;6.038;2022-12-20T06:52:03;99507.88;;;10.88;77.54
59419;BME280;45224;50.904;6.038;2022-12-20T06:53:46;99507.94;;;10.81;77.57
59419;BME280;45224;50.904;6.038;2022-12-20T06:55:16;99517.34;;;10.88;77.37
59419;BME280;45224;50.904;6.038;2022-12-20T06:56:48;99507.06;;;10.80;77.54
59419;BME280;45224;50.904;6.038;2022-12-20T06:58:19;99507.91;;;10.84;77.43
59419;BME280;45224;50.904;6.038;2022-12-20T06:59:52;99503.63;;;10.80;77.82
59419;BME280;45224;50.904;6.038;2022-12-20T07:01:22;99496.78;;;10.74;77.74
59419;BME280;45224;50.904;6.038;2022-12-20T07:02:52;99501.84;;;10.85;77.27
59419;BME280;45224;50.904;6.038;2022-12-20T07:04:23;99496.69;;;10.82;77.63
59419;BME280;45224;50.904;6.038;2022-12-20T07:05:54;99492.44;;;10.79;77.74
59419;BME280;45224;50.904;6.038;2022-12-20T07:07:25;99478.69;;;10.72;78.22
59419;BME280;45224;50.904;6.038;2022-12-20T07:08:55;99498.44;;;10.84;77.67
59419;BME280;45224;50.904;6.038;2022-12-20T07:10:26;99489.84;;;10.74;77.57
59419;BME280;45224;50.904;6.038;2022-12-20T07:11:56;99499.38;;;10.66;78.37
59419;BME280;45224;50.904;6.038;2022-12-20T07:13:27;99498.47;;;10.72;78.17
59419;BME280;45224;50.904;6.038;2022-12-20T07:14:57;99496.78;;;10.71;78.23
59419;BME280;45224;50.904;6.038;2022-12-20T07:16:28;99497.59;;;10.81;78.04
59419;BME280;45224;50.904;6.038;2022-12-20T07:18:01;99499.28;;;10.85;77.86
59419;BME280;45224;50.904;6.038;2022-12-20T07:19:33;99501.94;;;10.75;78.06
59419;BME280;45224;50.904;6.038;2022-12-20T07:21:04;99504.53;;;10.75;78.09
59419;BME280;45224;50.904;6.038;2022-12-20T07:22:35;99505.41;;;10.64;78.30
59419;BME280;45224;50.904;6.038;2022-12-20T07:24:05;99503.66;;;10.69;78.25
59419;BME280;45224;50.904;6.038;2022-12-20T07:25:36;99495.06;;;10.70;78.17
59419;BME280;45224;50.904;6.038;2022-12-20T07:27:06;99496.72;;;10.80;78.17
59419;BME280;45224;50.904;6.038;2022-12-20T07:28:37;99498.44;;;10.80;78.09
59419;BME280;45224;50.904;6.038;2022-12-20T07:30:08;99497.63;;;10.71;77.95
59419;BME280;45224;50.904;6.038;2022-12-20T07:31:38;99491.50;;;10.85;77.48
59419;BME280;45224;50.904;6.038;2022-12-20T07:33:09;99509.63;;;10.82;78.38
59419;BME280;45224;50.904;6.038;2022-12-20T07:34:39;99506.19;;;10.80;77.91
59419;BME280;45224;50.904;6.038;2022-12-20T07:36:12;99513.13;;;10.77;77.84
59419;BME280;45224;50.904;6.038;2022-12-20T07:37:42;99507.94;;;10.77;77.94
59419;BME280;45224;50.904;6.038;2022-12-20T07:39:13;99511.38;;;10.80;77.98
59419;BME280;45224;50.904;6.038;2022-12-20T07:40:43;99518.28;;;10.81;77.98
59419;BME280;45224;50.904;6.038;2022-12-20T07:42:14;99513.09;;;10.84;77.88
59419;BME280;45224;50.904;6.038;2022-12-20T07:43:46;99507.06;;;10.80;77.53
59419;BME280;45224;50.904;6.038;2022-12-20T07:45:16;99508.72;;;10.92;77.41
59419;BME280;45224;50.904;6.038;2022-12-20T07:46:47;99506.16;;;10.92;77.08
59419;BME280;45224;50.904;6.038;2022-12-20T07:48:18;99505.31;;;10.87;77.82
59419;BME280;45224;50.904;6.038;2022-12-20T07:49:48;99514.78;;;10.88;77.41
59419;BME280;45224;50.904;6.038;2022-12-20T07:51:28;99520.78;;;10.91;77.40
59419;BME280;45224;50.904;6.038;2022-12-20T07:52:59;99501.84;;;10.88;77.44
59419;BME280;45224;50.904;6.038;2022-12-20T07:54:32;99508.72;;;10.93;77.11
59419;BME280;45224;50.904;6.038;2022-12-20T07:56:05;99516.53;;;10.86;77.18
59419;BME280;45224;50.904;6.038;2022-12-20T07:57:40;99504.44;;;10.86;77.47
59419;BME280;45224;50.904;6.038;2022-12-20T07:59:15;99506.16;;;10.92;77.49
59419;BME280;45224;50.904;6.038;2022-12-20T08:00:47;99502.72;;;10.87;77.55
59419;BME280;45224;50.904;6.038;2022-12-20T08:02:29;99499.25;;;10.91;77.68
59419;BME280;45224;50.904;6.038;2022-12-20T08:04:13;99494.13;;;10.82;77.50
59419;BME280;45224;50.904;6.038;2022-12-20T08:05:46;99494.06;;;10.94;77.10
59419;BME280;45224;50.904;6.038;2022-12-20T08:07:19;99500.09;;;10.93;77.00
59419;BME280;45224;50.904;6.038;2022-12-20T08:08:53;99487.16;;;10.93;77.09
59419;BME280;45224;50.904;6.038;2022-12-20T08:10:26;99501.78;;;11.00;76.89
59419;BME280;45224;50.904;6.038;2022-12-20T08:11:57;99499.22;;;10.94;76.91
59419;BME280;45224;50.904;6.038;2022-12-20T08:13:28;99503.53;;;10.95;76.56
59419;BME280;45224;50.904;6.038;2022-12-20T08:14:58;99496.63;;;10.97;76.52
59419;BME280;45224;50.904;6.038;2022-12-20T08:16:29;99505.22;;;10.99;76.46
59419;BME280;45224;50.904;6.038;2022-12-20T08:18:01;99488.91;;;10.91;76.41
59419;BME280;45224;50.904;6.038;2022-12-20T08:19:31;99503.47;;;11.00;76.55
59419;BME280;45224;50.904;6.038;2022-12-20T08:21:01;99505.22;;;10.99;76.15
59419;BME280;45224;50.904;6.038;2022-12-20T08:22:32;99500.06;;;10.98;76.25
59419;BME280;45224;50.904;6.038;2022-12-20T08:24:03;99496.63;;;10.99;76.08
59419;BME280;45224;50.904;6.038;2022-12-20T08:25:34;99500.84;;;11.07;76.36
59419;BME280;45224;50.904;6.038;2022-12-20T08:27:05;99500.06;;;10.99;76.02